Time;durP1;ratioP1;P1;durP2;ratioP2;P2;SDS_P1;SDS_P2;PMS_P1;PMS_P2;Temp;Humidity;BMP_temperature;BMP_pressure;BME280_temperature;BME280_humidity;BME280_pressure;Samples;Min_cycle;Max_cycle;Signal;HPM_P1;HPM_P2
2023/11/25 00:01:07;;;;;;;5.67;1.03;;;6.00;99.90;;;;;;5043164;28;20726;-57
2023/11/25 00:03:35;;;;;;;2.00;1.00;;;5.90;99.90;;;;;;5044253;28;20225;-56
2023/11/25 00:06:02;;;;;;;3.20;1.10;;;5.80;99.90;;;;;;5041911;28;20209;-57
2023/11/25 00:08:28;;;;;;;1.77;0.90;;;5.80;99.90;;;;;;5040749;28;20206;-57
2023/11/25 00:10:56;;;;;;;2.57;1.40;;;5.80;99.90;;;;;;5042169;28;20230;-57
2023/11/25 00:13:23;;;;;;;4.23;1.00;;;5.80;99.90;;;;;;5044127;28;20197;-57
2023/11/25 00:15:49;;;;;;;2.27;1.00;;;5.80;99.90;;;;;;5043622;28;20233;-56
2023/11/25 00:18:17;;;;;;;3.43;1.27;;;5.80;99.90;;;;;;5040827;28;20210;-56
2023/11/25 00:20:46;;;;;;;4.43;1.07;;;5.70;99.90;;;;;;5040538;28;20230;-57
2023/11/25 00:23:13;;;;;;;3.93;1.00;;;5.60;99.90;;;;;;5040942;28;20218;-58
2023/11/25 00:25:40;;;;;;;3.27;0.97;;;5.60;99.90;;;;;;5040543;28;20202;-57
2023/11/25 00:28:09;;;;;;;4.10;1.50;;;5.50;99.90;;;;;;5043675;28;20233;-61
2023/11/25 00:30:36;;;;;;;2.63;1.10;;;5.50;99.90;;;;;;5043790;28;20229;-57
2023/11/25 00:33:03;;;;;;;2.40;1.00;;;5.40;99.90;;;;;;5041421;28;20690;-61
2023/11/25 00:35:31;;;;;;;2.03;0.87;;;5.40;99.90;;;;;;5038091;28;20273;-57
2023/11/25 00:37:59;;;;;;;2.57;1.10;;;5.40;99.90;;;;;;5042017;28;20737;-57
2023/11/25 00:40:26;;;;;;;5.27;1.37;;;5.30;99.90;;;;;;5040468;28;20223;-57
2023/11/25 00:42:52;;;;;;;2.13;1.00;;;5.30;99.90;;;;;;5041053;28;20233;-56
2023/11/25 00:45:20;;;;;;;2.43;0.80;;;5.20;99.90;;;;;;5043385;28;20220;-58
2023/11/25 00:47:47;;;;;;;3.57;0.80;;;5.20;99.90;;;;;;5043475;28;20206;-59
2023/11/25 00:50:15;;;;;;;2.30;1.07;;;5.10;99.90;;;;;;5039864;28;20699;-57
2023/11/25 00:52:42;;;;;;;4.10;0.83;;;5.10;99.90;;;;;;5040292;28;20202;-57
2023/11/25 00:55:11;;;;;;;3.23;1.00;;;5.00;99.90;;;;;;5042958;28;20205;-56
2023/11/25 00:57:38;;;;;;;7.20;1.30;;;5.10;99.90;;;;;;5043536;28;20259;-57
2023/11/25 01:00:10;;;;;;;4.40;1.37;;;5.00;99.90;;;;;;5040707;28;20213;-57
2023/11/25 01:02:36;;;;;;;1.57;0.93;;;5.10;99.90;;;;;;5039706;28;20208;-58
2023/11/25 01:05:04;;;;;;;5.80;0.80;;;5.10;99.90;;;;;;5042135;28;20624;-57
2023/11/25 01:07:30;;;;;;;2.63;0.80;;;5.10;99.90;;;;;;5043270;28;20256;-58
2023/11/25 01:09:57;;;;;;;5.77;1.00;;;5.10;99.90;;;;;;5041893;28;20593;-57
2023/11/25 01:12:25;;;;;;;2.63;0.80;;;5.10;99.90;;;;;;5039838;28;20593;-59
2023/11/25 01:14:52;;;;;;;1.33;0.77;;;5.10;99.90;;;;;;5040461;28;20214;-57
2023/11/25 01:17:18;;;;;;;5.50;1.40;;;5.00;99.90;;;;;;5043121;28;20224;-56
2023/11/25 01:19:45;;;;;;;1.73;0.90;;;5.00;99.90;;;;;;5043333;28;20635;-56
2023/11/25 01:22:12;;;;;;;2.83;1.00;;;4.90;99.90;;;;;;5039744;28;20226;-59
2023/11/25 01:24:39;;;;;;;4.90;1.30;;;4.80;99.90;;;;;;5040169;28;20236;-57
2023/11/25 01:27:07;;;;;;;2.93;0.93;;;4.80;99.90;;;;;;5042075;28;20248;-59
2023/11/25 01:29:35;;;;;;;9.13;1.53;;;4.70;99.90;;;;;;5043034;28;20240;-58
2023/11/25 01:32:02;;;;;;;6.23;1.17;;;4.70;99.90;;;;;;5041204;28;20432;-58
2023/11/25 01:34:28;;;;;;;4.07;0.77;;;4.70;99.90;;;;;;5039954;28;20201;-57
2023/11/25 01:36:54;;;;;;;3.63;0.90;;;4.70;99.90;;;;;;5040444;28;20206;-57
2023/11/25 01:39:21;;;;;;;4.50;0.87;;;4.70;99.90;;;;;;5043184;28;20213;-56
2023/11/25 01:41:48;;;;;;;3.57;1.13;;;4.70;99.90;;;;;;5042656;28;20229;-61
2023/11/25 01:44:15;;;;;;;2.53;1.23;;;4.60;99.90;;;;;;5039264;28;20218;-57
2023/11/25 01:46:43;;;;;;;3.93;1.37;;;4.60;99.90;;;;;;5039456;28;20213;-57
2023/11/25 01:49:12;;;;;;;5.73;1.20;;;4.70;99.90;;;;;;5042537;28;20252;-56
2023/11/25 01:51:40;;;;;;;2.87;0.90;;;4.50;99.90;;;;;;5042735;28;20264;-59
2023/11/25 01:54:08;;;;;;;3.67;1.00;;;4.40;99.90;;;;;;5040171;28;20209;-56
2023/11/25 01:56:35;;;;;;;4.07;0.90;;;4.30;99.90;;;;;;5039210;28;20293;-57
2023/11/25 01:59:06;;;;;;;3.50;1.00;;;4.20;99.90;;;;;;5041219;28;20706;-55
2023/11/25 02:01:35;;;;;;;5.93;1.03;;;4.00;99.90;;;;;;5042866;28;20583;-57
2023/11/25 02:04:03;;;;;;;3.10;1.10;;;4.00;99.90;;;;;;5040903;28;20231;-56
2023/11/25 02:06:30;;;;;;;6.00;1.43;;;3.90;99.90;;;;;;5036823;28;20288;-56
2023/11/25 02:08:56;;;;;;;3.77;1.13;;;4.00;99.90;;;;;;5042167;28;20713;-56
2023/11/25 02:11:25;;;;;;;4.10;0.97;;;4.00;99.90;;;;;;5038913;28;20316;-57
2023/11/25 02:13:51;;;;;;;4.00;0.70;;;4.10;99.90;;;;;;5039756;28;20226;-58
2023/11/25 02:16:20;;;;;;;3.90;1.70;;;4.00;99.90;;;;;;5042901;28;20209;-57
2023/11/25 02:18:47;;;;;;;2.57;1.13;;;4.00;99.90;;;;;;5042667;28;20724;-57
2023/11/25 02:21:15;;;;;;;4.67;1.00;;;3.90;99.90;;;;;;5038946;28;20625;-57
2023/11/25 02:23:43;;;;;;;4.60;1.10;;;3.90;99.90;;;;;;5038992;28;20605;-57
2023/11/25 02:26:10;;;;;;;2.17;1.10;;;3.80;99.90;;;;;;5044533;28;20217;-58
2023/11/25 02:28:36;;;;;;;1.43;1.20;;;3.70;99.90;;;;;;5046328;28;20736;-56
2023/11/25 02:31:04;;;;;;;4.43;1.40;;;3.60;99.90;;;;;;5044145;28;20228;-58
2023/11/25 02:33:35;;;;;;;5.67;1.20;;;3.50;99.90;;;;;;5042660;28;20586;-57
2023/11/25 02:36:03;;;;;;;3.20;1.10;;;3.40;99.90;;;;;;5044040;28;20217;-58
2023/11/25 02:38:30;;;;;;;4.83;1.60;;;3.40;99.90;;;;;;5045959;28;20558;-59
2023/11/25 02:40:58;;;;;;;2.10;1.10;;;3.40;99.90;;;;;;5045219;28;20221;-56
2023/11/25 02:43:26;;;;;;;3.30;1.13;;;3.40;99.90;;;;;;5043768;28;20225;-57
2023/11/25 02:45:52;;;;;;;1.97;0.87;;;3.60;99.90;;;;;;5042818;28;20211;-56
2023/11/25 02:48:19;;;;;;;3.53;1.40;;;3.70;99.90;;;;;;5046060;28;20208;-56
2023/11/25 02:50:47;;;;;;;4.17;1.43;;;3.50;99.90;;;;;;5045655;28;20253;-56
2023/11/25 02:53:14;;;;;;;2.03;0.90;;;3.60;99.90;;;;;;5042333;28;20260;-58
2023/11/25 02:55:40;;;;;;;3.33;1.50;;;3.70;99.90;;;;;;5042419;28;20214;-55
2023/11/25 02:58:08;;;;;;;2.60;1.10;;;3.80;99.90;;;;;;5044565;28;20679;-56
2023/11/25 03:00:39;;;;;;;4.40;1.40;;;3.90;99.90;;;;;;5045512;28;20221;-57
2023/11/25 03:03:12;;;;;;;3.50;1.30;;;3.90;99.90;;;;;;5043409;28;20589;-58
2023/11/25 03:05:42;;;;;;;6.57;1.50;;;3.90;99.90;;;;;;5041768;28;20202;-58
2023/11/25 03:08:12;;;;;;;2.37;0.83;;;4.00;99.90;;;;;;5044628;28;20238;-58
2023/11/25 03:10:41;;;;;;;3.50;1.10;;;4.00;99.90;;;;;;5045335;28;20280;-57
2023/11/25 03:13:09;;;;;;;3.83;0.90;;;4.10;99.90;;;;;;5043071;28;20216;-56
2023/11/25 03:15:36;;;;;;;4.67;1.23;;;4.20;99.90;;;;;;5041897;28;20257;-59
2023/11/25 03:18:03;;;;;;;5.40;1.10;;;4.30;99.90;;;;;;5043745;28;20213;-56
2023/11/25 03:20:29;;;;;;;5.20;1.23;;;4.40;99.90;;;;;;5045123;28;20228;-55
2023/11/25 03:22:56;;;;;;;3.50;0.90;;;4.50;99.90;;;;;;5044413;28;20210;-59
2023/11/25 03:25:24;;;;;;;3.93;1.37;;;4.70;99.90;;;;;;5041802;28;20309;-56
2023/11/25 03:27:51;;;;;;;2.63;1.13;;;4.80;99.90;;;;;;5041961;28;20210;-60
2023/11/25 03:30:19;;;;;;;4.00;1.30;;;4.90;99.90;;;;;;5045216;28;20259;-56
2023/11/25 03:32:46;;;;;;;3.77;1.57;;;5.00;99.90;;;;;;5044955;28;20244;-56
2023/11/25 03:35:13;;;;;;;3.03;1.10;;;5.10;99.90;;;;;;5041551;28;20688;-57
2023/11/25 03:37:40;;;;;;;3.50;1.43;;;5.30;99.90;;;;;;5040573;28;20206;-57
2023/11/25 03:40:13;;;;;;;3.33;1.03;;;5.40;99.90;;;;;;5043781;28;20216;-56
2023/11/25 03:42:40;;;;;;;9.10;2.10;;;5.50;99.90;;;;;;5044871;28;20245;-56
2023/11/25 03:45:08;;;;;;;3.37;1.40;;;5.50;99.90;;;;;;5042344;28;20225;-57
2023/11/25 03:47:36;;;;;;;4.03;1.20;;;5.60;99.90;;;;;;5041447;28;20645;-57
2023/11/25 03:50:03;;;;;;;5.00;1.67;;;5.70;99.90;;;;;;5042805;28;20213;-56
2023/11/25 03:52:30;;;;;;;5.17;1.17;;;5.70;99.90;;;;;;5044672;28;20588;-57
2023/11/25 03:54:57;;;;;;;4.80;1.50;;;5.60;99.90;;;;;;5043919;28;20701;-58
2023/11/25 03:57:24;;;;;;;3.00;1.20;;;5.50;99.90;;;;;;5041095;28;20202;-57
2023/11/25 03:59:50;;;;;;;3.70;1.13;;;5.60;99.90;;;;;;5040968;28;20229;-57
2023/11/25 04:02:17;;;;;;;7.00;1.83;;;5.70;99.90;;;;;;5040934;28;20230;-58
2023/11/25 04:04:45;;;;;;;2.77;1.50;;;5.60;99.90;;;;;;5040823;28;20230;-57
2023/11/25 04:07:12;;;;;;;6.07;1.50;;;5.60;99.90;;;;;;5043744;28;20268;-57
2023/11/25 04:09:39;;;;;;;5.57;1.50;;;5.60;99.90;;;;;;5044208;28;20587;-57
2023/11/25 04:12:06;;;;;;;4.13;1.43;;;5.70;99.90;;;;;;5070703;22;20229;-63
2023/11/25 04:14:32;;;;;;;5.13;1.53;;;5.80;99.90;;;;;;5040646;28;20208;-63
2023/11/25 04:16:59;;;;;;;4.10;1.33;;;5.70;99.90;;;;;;5041528;28;20213;-62
2023/11/25 04:19:26;;;;;;;8.00;1.63;;;5.70;99.90;;;;;;5043959;28;20246;-62
2023/11/25 04:21:58;;;;;;;4.40;1.47;;;5.70;99.90;;;;;;5043645;28;20274;-63
2023/11/25 04:24:27;;;;;;;4.37;1.70;;;5.70;99.90;;;;;;5040674;28;20316;-62
2023/11/25 04:26:53;;;;;;;5.37;1.43;;;5.80;99.90;;;;;;5040093;28;20264;-62
2023/11/25 04:29:21;;;;;;;5.70;1.30;;;5.70;99.90;;;;;;5043915;28;20198;-62
2023/11/25 04:31:49;;;;;;;1.50;1.03;;;5.60;99.90;;;;;;5043861;28;20312;-60
2023/11/25 04:34:16;;;;;;;7.60;1.60;;;5.50;99.90;;;;;;5040466;28;20198;-61
2023/11/25 04:36:43;;;;;;;6.03;1.53;;;5.30;99.90;;;;;;5040196;28;20256;-60
2023/11/25 04:39:11;;;;;;;6.87;1.40;;;5.30;99.90;;;;;;5042284;28;20210;-62
2023/11/25 04:41:40;;;;;;;6.67;1.50;;;5.30;99.90;;;;;;5043620;28;20310;-61
2023/11/25 04:44:07;;;;;;;4.93;1.87;;;5.30;99.90;;;;;;5041428;28;20707;-60
2023/11/25 04:46:34;;;;;;;5.73;1.60;;;5.40;99.90;;;;;;5039876;28;20277;-61
2023/11/25 04:49:00;;;;;;;5.97;2.37;;;5.50;99.90;;;;;;5040568;28;20238;-61
2023/11/25 04:51:28;;;;;;;5.07;1.50;;;5.30;99.90;;;;;;5043168;28;20272;-60
2023/11/25 04:53:55;;;;;;;5.00;1.60;;;5.30;99.90;;;;;;5042999;28;20210;-63
2023/11/25 04:56:23;;;;;;;5.00;1.30;;;5.30;99.90;;;;;;5039859;28;20210;-62
2023/11/25 04:58:49;;;;;;;6.13;1.60;;;5.10;99.90;;;;;;5040007;28;20252;-62
2023/11/25 05:01:17;;;;;;;4.20;1.60;;;4.90;99.90;;;;;;5042778;28;20221;-62
2023/11/25 05:03:44;;;;;;;5.00;2.90;;;4.70;99.90;;;;;;5043078;28;20202;-62
2023/11/25 05:06:10;;;;;;;4.77;1.30;;;4.50;99.90;;;;;;5040678;28;20678;-63
2023/11/25 05:08:37;;;;;;;4.63;1.43;;;4.50;99.90;;;;;;5039527;28;20586;-62
2023/11/25 05:11:05;;;;;;;4.97;1.37;;;4.30;99.90;;;;;;5040775;28;20226;-62
2023/11/25 05:13:33;;;;;;;4.17;1.53;;;4.10;99.90;;;;;;5043154;28;20202;-63
2023/11/25 05:16:00;;;;;;;7.37;1.60;;;3.90;99.90;;;;;;5041933;28;20205;-60
2023/11/25 05:18:26;;;;;;;4.73;1.47;;;3.80;99.90;;;;;;5039923;28;20202;-61
2023/11/25 05:20:53;;;;;;;3.30;1.53;;;3.70;99.90;;;;;;5039289;28;20261;-61
2023/11/25 05:23:20;;;;;;;7.20;1.47;;;3.60;99.90;;;;;;5039379;28;20207;-61
2023/11/25 05:25:46;;;;;;;5.40;1.47;;;3.60;99.90;;;;;;5039127;28;20227;-62
2023/11/25 05:28:13;;;;;;;3.63;1.60;;;3.50;99.90;;;;;;5042146;28;20233;-61
2023/11/25 05:30:41;;;;;;;6.60;1.63;;;3.50;99.90;;;;;;5042583;28;20231;-61
2023/11/25 05:33:09;;;;;;;6.20;1.83;;;3.50;99.90;;;;;;5040917;28;20209;-61
2023/11/25 05:35:35;;;;;;;3.30;1.40;;;3.40;99.90;;;;;;5039164;28;20614;-61
2023/11/25 05:38:04;;;;;;;3.63;1.47;;;3.40;99.90;;;;;;5040424;28;20210;-61
2023/11/25 05:40:31;;;;;;;4.47;1.50;;;3.30;99.90;;;;;;5042627;28;20292;-60
2023/11/25 05:43:00;;;;;;;4.50;2.30;;;3.30;99.90;;;;;;5042129;28;20698;-61
2023/11/25 05:45:30;;;;;;;3.13;1.60;;;3.30;99.90;;;;;;5038994;28;20218;-61
2023/11/25 05:47:58;;;;;;;2.80;1.50;;;3.30;99.90;;;;;;5039209;28;20294;-61
2023/11/25 05:50:25;;;;;;;5.50;1.60;;;3.30;99.90;;;;;;5042713;28;20206;-61
2023/11/25 05:52:51;;;;;;;2.00;1.27;;;3.30;99.90;;;;;;5042571;28;20267;-61
2023/11/25 05:55:19;;;;;;;3.10;1.60;;;3.30;99.90;;;;;;5039173;28;20203;-61
2023/11/25 05:57:46;;;;;;;6.50;1.87;;;3.30;99.90;;;;;;5039325;28;20230;-61
2023/11/25 06:00:14;;;;;;;3.03;1.77;;;3.30;99.90;;;;;;5042915;28;20664;-61
2023/11/25 06:02:41;;;;;;;4.73;1.93;;;3.30;99.90;;;;;;5046421;28;20275;-61
2023/11/25 06:05:10;;;;;;;4.53;1.90;;;3.30;99.90;;;;;;5044811;28;20225;-61
2023/11/25 06:07:37;;;;;;;7.17;2.30;;;3.40;99.90;;;;;;5043257;28;20297;-61
2023/11/25 06:10:04;;;;;;;4.60;1.63;;;3.40;99.90;;;;;;5043967;28;20218;-61
2023/11/25 06:12:32;;;;;;;5.90;1.63;;;3.60;99.90;;;;;;5046173;28;20527;-61
2023/11/25 06:14:59;;;;;;;5.47;1.80;;;3.70;99.90;;;;;;5045686;28;20636;-61
2023/11/25 06:17:26;;;;;;;6.60;2.00;;;3.80;99.90;;;;;;5042791;28;20222;-61
2023/11/25 06:19:54;;;;;;;4.83;2.10;;;3.90;99.90;;;;;;5042624;28;20699;-61
2023/11/25 06:22:22;;;;;;;3.50;1.60;;;4.00;99.90;;;;;;5046062;28;20229;-61
2023/11/25 06:24:48;;;;;;;7.63;1.80;;;4.20;99.90;;;;;;5046399;28;20240;-61
2023/11/25 06:27:16;;;;;;;4.33;1.70;;;4.20;99.90;;;;;;5043169;28;20694;-61
2023/11/25 06:29:43;;;;;;;6.63;1.70;;;4.30;99.90;;;;;;5042441;28;20210;-62
2023/11/25 06:32:10;;;;;;;6.10;1.80;;;4.30;99.90;;;;;;5044475;28;20321;-61
2023/11/25 06:34:36;;;;;;;5.87;1.50;;;4.40;99.90;;;;;;5045907;28;20292;-61
2023/11/25 06:37:03;;;;;;;5.70;2.20;;;4.50;99.90;;;;;;5044820;28;20209;-61
2023/11/25 06:39:32;;;;;;;4.27;1.60;;;4.60;99.90;;;;;;5042560;28;20202;-61
2023/11/25 06:42:00;;;;;;;6.77;1.77;;;4.70;99.90;;;;;;5042485;28;20313;-61
2023/11/25 06:44:27;;;;;;;5.27;1.50;;;4.80;99.90;;;;;;5048253;28;20247;-63
2023/11/25 06:46:53;;;;;;;4.33;1.80;;;4.80;99.90;;;;;;5049190;28;20206;-61
2023/11/25 06:49:20;;;;;;;3.97;2.10;;;4.90;99.90;;;;;;5043600;28;20208;-62
2023/11/25 06:51:47;;;;;;;5.60;2.40;;;5.00;99.90;;;;;;5042268;28;20234;-61
2023/11/25 06:54:14;;;;;;;6.07;1.80;;;5.10;99.90;;;;;;5044622;28;20272;-61
2023/11/25 06:56:43;;;;;;;6.43;1.80;;;5.10;99.90;;;;;;5045220;28;20209;-61
2023/11/25 06:59:09;;;;;;;3.73;1.83;;;5.20;99.90;;;;;;5043910;28;20209;-61
2023/11/25 07:01:37;;;;;;;4.60;2.40;;;5.20;99.90;;;;;;5041921;28;20219;-61
2023/11/25 07:04:04;;;;;;;4.07;1.77;;;5.30;99.90;;;;;;5042690;28;20297;-61
2023/11/25 07:06:31;;;;;;;3.63;1.50;;;5.40;99.90;;;;;;5045139;28;20217;-61
2023/11/25 07:09:00;;;;;;;11.37;2.10;;;5.40;99.90;;;;;;5045183;28;20213;-62
2023/11/25 07:11:27;;;;;;;5.53;1.77;;;5.50;99.90;;;;;;5041388;28;20288;-60
2023/11/25 07:13:55;;;;;;;2.50;1.70;;;5.50;99.90;;;;;;5041871;28;20214;-60
2023/11/25 07:16:22;;;;;;;5.83;2.87;;;5.60;99.90;;;;;;5044765;28;20212;-62
2023/11/25 07:18:49;;;;;;;3.77;2.10;;;5.60;99.90;;;;;;5045165;28;20244;-63
2023/11/25 07:21:16;;;;;;;6.17;2.50;;;5.60;99.90;;;;;;5042342;28;20225;-63
2023/11/25 07:23:43;;;;;;;3.77;1.90;;;5.70;99.90;;;;;;5041656;28;20213;-62
2023/11/25 07:26:11;;;;;;;5.33;1.87;;;5.70;99.90;;;;;;5042849;28;20222;-62
2023/11/25 07:28:38;;;;;;;4.27;1.57;;;5.60;99.90;;;;;;5045014;28;20231;-61
2023/11/25 07:31:09;;;;;;;4.77;1.70;;;5.60;99.90;;;;;;5043635;28;20233;-62
2023/11/25 07:33:36;;;;;;;5.70;1.40;;;5.70;99.90;;;;;;5041481;28;20202;-61
2023/11/25 07:36:02;;;;;;;3.90;1.30;;;5.70;99.90;;;;;;5041575;28;20261;-62
2023/11/25 07:38:29;;;;;;;2.70;1.13;;;5.70;99.90;;;;;;5044745;28;20297;-62
2023/11/25 07:40:56;;;;;;;2.93;1.30;;;5.70;99.90;;;;;;5044919;28;20283;-62
2023/11/25 07:43:24;;;;;;;3.03;2.27;;;5.80;99.90;;;;;;5041529;28;20202;-63
2023/11/25 07:45:51;;;;;;;3.57;1.67;;;5.90;99.90;;;;;;5041187;28;20305;-60
2023/11/25 07:48:19;;;;;;;4.47;1.73;;;6.10;99.90;;;;;;5043814;28;20210;-60
2023/11/25 07:50:46;;;;;;;5.47;2.00;;;6.20;99.90;;;;;;5044310;28;20233;-60
2023/11/25 07:53:13;;;;;;;3.13;1.30;;;6.30;99.90;;;;;;5042249;28;20705;-60
2023/11/25 07:55:40;;;;;;;4.47;1.63;;;6.30;99.90;;;;;;5041390;28;20203;-60
2023/11/25 07:58:08;;;;;;;7.53;2.23;;;6.40;99.90;;;;;;5042308;28;20252;-60
2023/11/25 08:00:35;;;;;;;3.93;1.60;;;6.50;99.90;;;;;;5044500;28;20258;-61
2023/11/25 08:03:02;;;;;;;3.40;1.40;;;6.50;99.90;;;;;;5043986;28;20243;-59
2023/11/25 08:05:30;;;;;;;4.83;1.90;;;6.50;99.90;;;;;;5040817;28;20223;-60
2023/11/25 08:07:57;;;;;;;4.97;1.47;;;6.50;99.90;;;;;;5041313;28;20213;-61
2023/11/25 08:10:25;;;;;;;5.67;1.70;;;6.50;99.90;;;;;;5043970;28;20292;-60
2023/11/25 08:12:52;;;;;;;5.57;1.80;;;6.50;99.90;;;;;;5044399;28;20567;-61
2023/11/25 08:15:18;;;;;;;9.50;5.43;;;6.50;99.90;;;;;;5041281;28;20256;-59
2023/11/25 08:17:46;;;;;;;5.23;2.43;;;6.50;99.90;;;;;;5040656;28;20247;-60
2023/11/25 08:20:13;;;;;;;3.57;1.40;;;6.50;99.90;;;;;;5042112;28;20221;-60
2023/11/25 08:22:41;;;;;;;5.23;1.47;;;6.50;99.90;;;;;;5043726;28;20226;-60
2023/11/25 08:25:09;;;;;;;7.17;1.77;;;6.50;99.90;;;;;;5042736;28;20230;-58
2023/11/25 08:27:36;;;;;;;4.60;1.50;;;6.40;99.90;;;;;;5040585;28;20210;-61
2023/11/25 08:30:06;;;;;;;5.17;1.70;;;6.40;99.90;;;;;;5040758;28;20237;-59
2023/11/25 08:32:33;;;;;;;4.47;1.50;;;6.50;99.90;;;;;;5043658;28;20225;-60
2023/11/25 08:35:00;;;;;;;3.57;1.30;;;6.50;99.90;;;;;;5043719;28;20209;-60
2023/11/25 08:37:28;;;;;;;3.50;1.40;;;6.60;99.90;;;;;;5040050;28;20708;-59
2023/11/25 08:39:56;;;;;;;4.43;1.20;;;6.60;99.90;;;;;;5040599;28;20401;-60
2023/11/25 08:42:24;;;;;;;2.83;1.30;;;6.70;99.90;;;;;;5043075;28;20217;-59
2023/11/25 08:44:51;;;;;;;3.63;1.60;;;6.70;99.90;;;;;;5043510;28;20205;-60
2023/11/25 08:47:18;;;;;;;3.43;1.40;;;6.80;99.90;;;;;;5032587;28;20264;-58
2023/11/25 08:49:45;;;;;;;2.47;1.10;;;6.90;99.90;;;;;;5040245;28;20210;-59
2023/11/25 08:52:12;;;;;;;5.47;1.83;;;7.00;99.90;;;;;;5041304;28;20292;-61
2023/11/25 08:54:39;;;;;;;3.67;1.60;;;7.10;99.90;;;;;;5043359;28;20287;-61
2023/11/25 08:57:08;;;;;;;3.40;1.50;;;7.20;99.90;;;;;;5042142;28;20206;-60
2023/11/25 08:59:35;;;;;;;4.60;1.50;;;7.40;99.90;;;;;;5039647;28;20206;-59
2023/11/25 09:02:04;;;;;;;4.30;1.40;;;7.50;99.90;;;;;;5039684;28;20230;-59
2023/11/25 09:04:35;;;;;;;4.00;1.27;;;7.50;99.90;;;;;;5043576;28;20206;-59
2023/11/25 09:07:02;;;;;;;5.83;1.73;;;7.50;99.90;;;;;;5042960;28;20229;-59
2023/11/25 09:09:29;;;;;;;3.67;1.63;;;7.40;99.90;;;;;;5039746;28;20198;-60
2023/11/25 09:11:56;;;;;;;4.13;1.40;;;7.30;99.90;;;;;;5039490;28;20250;-59
2023/11/25 09:14:24;;;;;;;3.57;1.33;;;7.20;99.90;;;;;;5042291;28;20255;-59
2023/11/25 09:16:50;;;;;;;4.27;1.50;;;7.00;99.90;;;;;;5043128;28;20202;-58
2023/11/25 09:19:17;;;;;;;2.90;1.37;;;6.90;99.90;;;;;;5040741;28;20676;-61
2023/11/25 09:21:44;;;;;;;4.20;1.50;;;6.90;99.90;;;;;;5039754;28;20230;-60
2023/11/25 09:24:11;;;;;;;6.13;1.30;;;6.90;99.90;;;;;;5040955;28;20293;-60
2023/11/25 09:26:38;;;;;;;3.57;1.40;;;6.90;99.90;;;;;;5042651;28;20224;-60
2023/11/25 09:29:05;;;;;;;3.90;1.57;;;6.90;99.90;;;;;;5042765;28;20220;-60
2023/11/25 09:31:33;;;;;;;3.27;1.40;;;6.80;99.90;;;;;;5039679;28;20226;-60
2023/11/25 09:34:02;;;;;;;4.00;1.20;;;7.00;99.90;;;;;;5039727;28;20233;-60
2023/11/25 09:36:29;;;;;;;4.77;1.57;;;7.20;99.90;;;;;;5039336;28;20195;-60
2023/11/25 09:38:56;;;;;;;7.77;1.83;;;7.40;99.90;;;;;;5039597;28;20202;-60
2023/11/25 09:41:23;;;;;;;9.33;1.43;;;7.60;99.90;;;;;;5041928;28;20226;-60
2023/11/25 09:43:51;;;;;;;4.90;1.53;;;7.80;99.90;;;;;;5043045;28;20217;-60
2023/11/25 09:46:17;;;;;;;5.00;1.47;;;7.90;99.90;;;;;;5040726;28;20226;-60
2023/11/25 09:48:46;;;;;;;3.97;1.60;;;8.00;99.90;;;;;;5039617;28;20219;-60
2023/11/25 09:51:16;;;;;;;5.63;1.83;;;8.00;99.90;;;;;;5041261;28;20727;-60
2023/11/25 09:53:44;;;;;;;4.67;1.60;;;8.00;99.90;;;;;;5042960;28;20213;-60
2023/11/25 09:56:13;;;;;;;5.50;2.03;;;8.00;99.90;;;;;;5041620;28;20201;-60
2023/11/25 09:58:40;;;;;;;4.90;1.67;;;8.10;99.90;;;;;;5039714;28;20217;-60
2023/11/25 10:01:10;;;;;;;7.63;1.83;;;8.10;99.90;;;;;;5042191;28;20237;-60
2023/11/25 10:03:42;;;;;;;6.50;1.70;;;8.20;99.90;;;;;;5045707;28;20690;-60
2023/11/25 10:06:11;;;;;;;7.70;1.90;;;8.30;99.90;;;;;;5044431;28;20710;-58
2023/11/25 10:08:38;;;;;;;5.07;1.90;;;8.40;99.90;;;;;;5041563;28;20206;-60
2023/11/25 10:11:07;;;;;;;5.97;1.50;;;8.50;99.90;;;;;;5066611;22;20230;-59
2023/11/25 10:13:35;;;;;;;6.07;1.77;;;8.60;99.90;;;;;;5062575;28;20208;-60
2023/11/25 10:16:02;;;;;;;6.47;1.97;;;8.90;99.90;;;;;;5062302;28;20204;-61
2023/11/25 10:18:29;;;;;;;7.97;1.60;;;9.00;99.90;;;;;;5050971;28;20209;-60
2023/11/25 10:20:58;;;;;;;5.20;1.63;;;9.10;99.90;;;;;;5050476;28;20296;-61
2023/11/25 10:23:27;;;;;;;8.07;2.00;;;8.90;99.90;;;;;;5061962;28;20686;-61
2023/11/25 10:25:54;;;;;;;5.73;1.93;;;8.90;99.90;;;;;;5062346;28;20235;-62
2023/11/25 10:28:25;;;;;;;8.57;2.03;;;9.00;99.90;;;;;;5060259;28;20208;-59
2023/11/25 10:30:56;;;;;;;5.77;1.90;;;9.10;99.90;;;;;;5050671;28;20213;-61
2023/11/25 10:33:24;;;;;;;7.20;1.63;;;9.20;99.90;;;;;;5061421;28;20217;-59
2023/11/25 10:35:50;;;;;;;5.97;1.80;;;9.30;99.90;;;;;;5062417;28;20205;-60
2023/11/25 10:38:19;;;;;;;9.00;2.50;;;9.20;99.90;;;;;;5060723;28;20593;-59
2023/11/25 10:40:48;;;;;;;8.80;2.53;;;9.20;99.90;;;;;;5050597;28;20241;-62
2023/11/25 10:43:15;;;;;;;6.60;1.93;;;9.10;99.90;;;;;;5060289;28;20297;-60
2023/11/25 10:45:43;;;;;;;10.60;2.30;;;9.20;99.90;;;;;;5062695;28;20201;-60
2023/11/25 10:48:11;;;;;;;8.33;1.80;;;9.20;99.90;;;;;;5065040;28;20212;-61
2023/11/25 10:50:40;;;;;;;11.57;2.23;;;9.10;99.90;;;;;;5054213;28;20216;-61
2023/11/25 10:53:10;;;;;;;9.00;2.30;;;9.10;99.90;;;;;;5062796;28;20213;-61
2023/11/25 10:55:38;;;;;;;10.43;2.40;;;8.90;99.90;;;;;;5065555;28;20204;-61
2023/11/25 10:58:06;;;;;;;5.97;2.10;;;8.70;99.90;;;;;;5065509;28;20205;-60
2023/11/25 11:00:34;;;;;;;9.77;2.27;;;8.50;99.90;;;;;;5053949;28;20210;-60
2023/11/25 11:03:05;;;;;;;10.13;2.60;;;8.40;99.90;;;;;;5061998;28;20759;-61
2023/11/25 11:05:41;;;;;;;8.60;2.20;;;8.30;99.90;;;;;;5054212;28;20292;-61
2023/11/25 11:08:12;;;;;;;7.60;2.70;;;8.30;99.90;;;;;;5062413;28;20662;-61
2023/11/25 11:10:45;;;;;;;8.23;2.33;;;8.40;99.90;;;;;;5065279;28;20216;-61
2023/11/25 11:13:16;;;;;;;7.77;2.90;;;8.50;99.90;;;;;;5064195;28;20205;-60
2023/11/25 11:15:47;;;;;;;8.60;2.20;;;8.60;99.90;;;;;;5054232;28;20597;-60
2023/11/25 11:18:19;;;;;;;13.70;2.43;;;8.60;99.90;;;;;;5063284;28;20228;-60
2023/11/25 11:20:48;;;;;;;5.83;2.30;;;8.70;99.90;;;;;;5065392;28;20208;-60
2023/11/25 11:23:15;;;;;;;12.20;2.40;;;9.00;99.90;;;;;;5064306;28;20212;-63
2023/11/25 11:25:50;;;;;;;9.37;2.40;;;9.20;99.90;;;;;;5053216;28;20206;-61
2023/11/25 11:28:23;;;;;;;10.50;2.47;;;9.30;99.90;;;;;;5063583;28;20220;-60
2023/11/25 11:31:21;;;;;;;8.10;2.10;;;9.30;99.90;;;;;;5065339;28;20328;-61
2023/11/25 11:33:48;;;;;;;8.70;2.63;;;9.20;99.90;;;;;;5055790;28;20209;-60
2023/11/25 11:36:20;;;;;;;11.27;2.53;;;9.30;99.90;;;;;;5063516;28;20212;-61
2023/11/25 11:38:47;;;;;;;9.83;1.97;;;9.10;99.90;;;;;;5053735;28;20637;-61
2023/11/25 11:41:38;;;;;;;9.10;2.17;;;9.10;99.90;;;;;;5062467;28;20233;-61
2023/11/25 11:44:07;;;;;;;8.80;3.53;;;8.90;99.90;;;;;;5060086;28;20213;-61
2023/11/25 11:46:38;;;;;;;6.93;2.30;;;8.70;99.90;;;;;;5053160;28;20218;-62
2023/11/25 11:49:07;;;;;;;8.37;2.10;;;8.60;99.90;;;;;;5053090;28;20613;-60
2023/11/25 11:51:34;;;;;;;7.60;2.47;;;8.30;99.90;;;;;;5053882;28;20300;-61
2023/11/25 11:54:24;;;;;;;6.37;2.60;;;8.10;99.90;;;;;;5053444;28;20209;-60
2023/11/25 11:57:01;;;;;;;6.27;2.00;;;8.10;99.90;;;;;;5054814;28;20244;-60
2023/11/25 12:00:00;;;;;;;8.37;2.20;;;7.80;99.90;;;;;;5053106;28;20283;-61
2023/11/25 12:02:31;;;;;;;4.67;1.80;;;7.50;99.90;;;;;;5053163;28;20239;-60
2023/11/25 12:04:59;;;;;;;10.00;2.30;;;7.20;99.90;;;;;;5052884;28;20627;-62
2023/11/25 12:07:26;;;;;;;7.73;1.97;;;7.00;99.90;;;;;;5063142;28;20298;-60
2023/11/25 12:09:53;;;;;;;6.27;1.70;;;6.90;99.90;;;;;;5064618;28;20568;-60
2023/11/25 12:12:20;;;;;;;7.50;1.77;;;6.80;99.90;;;;;;5062439;28;20229;-66
2023/11/25 12:14:47;;;;;;;5.80;1.90;;;6.90;99.90;;;;;;5052779;28;20248;-64
2023/11/25 12:17:16;;;;;;;3.63;1.93;;;7.00;99.90;;;;;;5068174;28;20232;-67
2023/11/25 12:19:42;;;;;;;7.17;1.80;;;7.00;99.90;;;;;;5064955;28;20212;-67
2023/11/25 12:22:09;;;;;;;5.40;2.10;;;7.10;99.90;;;;;;5049474;28;20245;-66
2023/11/25 12:24:36;;;;;;;5.27;1.83;;;7.10;99.90;;;;;;5052124;28;20214;-66
2023/11/25 12:27:06;;;;;;;3.23;1.40;;;7.20;99.90;;;;;;5052493;28;20287;-66
2023/11/25 12:29:34;;;;;;;10.40;2.20;;;7.20;99.90;;;;;;5044888;28;20206;-67
2023/11/25 12:32:01;;;;;;;7.17;1.93;;;7.20;99.90;;;;;;5052272;28;20623;-69
2023/11/25 12:34:30;;;;;;;6.20;2.00;;;7.20;99.90;;;;;;5052222;28;20210;-67
2023/11/25 12:36:57;;;;;;;7.60;2.20;;;7.20;99.90;;;;;;5052751;28;20202;-68
2023/11/25 12:39:24;;;;;;;5.50;1.93;;;7.10;99.90;;;;;;5053205;28;20209;-67
2023/11/25 12:41:51;;;;;;;4.03;1.50;;;7.10;99.90;;;;;;5052348;28;20277;-66
2023/11/25 12:44:19;;;;;;;5.10;1.97;;;7.00;99.90;;;;;;5056241;28;20596;-67
2023/11/25 12:47:00;;;;;;;8.67;2.40;;;6.80;99.90;;;;;;5052164;28;20221;-66
2023/11/25 12:49:29;;;;;;;6.33;1.80;;;6.90;99.90;;;;;;5052064;28;20213;-66
2023/11/25 12:51:56;;;;;;;7.73;2.40;;;6.80;99.90;;;;;;5051748;28;20230;-68
2023/11/25 12:54:23;;;;;;;10.83;2.37;;;6.90;99.90;;;;;;5051621;28;20213;-67
2023/11/25 12:56:52;;;;;;;7.40;2.00;;;7.10;99.90;;;;;;5051256;28;20208;-65
2023/11/25 12:59:23;;;;;;;6.73;1.67;;;7.20;99.90;;;;;;5051184;28;20213;-67
2023/11/25 13:01:50;;;;;;;8.23;1.97;;;7.20;99.90;;;;;;5052381;28;20283;-67